Time;durP1;ratioP1;P1;durP2;ratioP2;P2;SDS_P1;SDS_P2;PMS_P1;PMS_P2;Temp;Humidity;BMP_temperature;BMP_pressure;BME280_temperature;BME280_humidity;BME280_pressure;Samples;Min_cycle;Max_cycle;Signal;HPM_P1;HPM_P2
2020/12/19 00:06:44;;;;;;;1.95;1.00;;;11.50;63.90;;;;;;20905694;28;20037;-73
2020/12/19 00:16:45;;;;;;;4.55;1.23;;;11.50;63.90;;;;;;20898521;28;20075;-73
2020/12/19 00:26:45;;;;;;;1.77;1.02;;;11.50;63.90;;;;;;20881206;28;20041;-72
2020/12/19 00:36:47;;;;;;;1.13;0.75;;;11.50;63.90;;;;;;20878475;28;20037;-72
2020/12/19 00:46:49;;;;;;;2.33;1.00;;;11.40;63.70;;;;;;20904442;28;20033;-72
2020/12/19 00:56:52;;;;;;;3.08;0.95;;;11.50;63.70;;;;;;20868836;28;20151;-72
2020/12/19 01:06:53;;;;;;;4.40;0.82;;;11.50;63.70;;;;;;20867032;28;20052;-72
2020/12/19 01:16:54;;;;;;;1.58;0.95;;;11.40;63.60;;;;;;20890516;28;20037;-72
2020/12/19 01:26:55;;;;;;;0.73;0.52;;;11.40;63.50;;;;;;20879831;28;20536;-72
2020/12/19 01:36:56;;;;;;;0.57;0.50;;;11.40;64.10;;;;;;20882294;28;20178;-73
2020/12/19 01:46:59;;;;;;;2.70;0.98;;;11.40;63.40;;;;;;20892686;28;20288;-72
2020/12/19 01:57:02;;;;;;;2.33;0.82;;;11.40;63.30;;;;;;20881805;28;20043;-72
2020/12/19 02:07:04;;;;;;;1.27;0.50;;;11.40;63.20;;;;;;20866424;28;20048;-73
2020/12/19 02:17:09;;;;;;;2.20;0.77;;;11.30;63.20;;;;;;20866885;28;20032;-71
2020/12/19 02:27:09;;;;;;;1.17;0.93;;;11.30;63.10;;;;;;20886846;28;20040;-72
2020/12/19 02:37:10;;;;;;;1.48;0.68;;;11.30;63.10;;;;;;20882689;28;20041;-72
2020/12/19 02:47:11;;;;;;;1.25;0.57;;;11.30;63.10;;;;;;20895522;28;20479;-71
2020/12/19 02:57:12;;;;;;;2.13;0.98;;;11.30;63.00;;;;;;20852562;28;20053;-72
2020/12/19 03:07:13;;;;;;;0.90;0.65;;;11.30;63.10;;;;;;20881247;28;20052;-72
2020/12/19 03:17:13;;;;;;;1.45;0.68;;;11.30;63.00;;;;;;20883515;28;20103;-72
2020/12/19 03:27:14;;;;;;;0.88;0.68;;;11.30;63.00;;;;;;20857891;28;20033;-71
2020/12/19 03:37:14;;;;;;;1.45;0.57;;;11.30;63.00;;;;;;20883324;28;20086;-72
2020/12/19 03:47:15;;;;;;;1.13;0.75;;;11.30;63.00;;;;;;20919250;28;20067;-71
2020/12/19 03:57:15;;;;;;;1.92;1.10;;;11.20;63.00;;;;;;20915560;28;20041;-72
2020/12/19 04:07:16;;;;;;;0.63;0.60;;;11.30;63.10;;;;;;20907124;28;20033;-74
2020/12/19 04:17:16;;;;;;;1.05;0.70;;;11.20;63.00;;;;;;20924477;28;20136;-73
2020/12/19 04:27:17;;;;;;;1.08;0.60;;;11.20;63.00;;;;;;20923235;28;20036;-73
2020/12/19 04:37:18;;;;;;;1.20;1.08;;;11.20;63.10;;;;;;20931681;28;20024;-72
2020/12/19 04:47:18;;;;;;;0.68;0.30;;;11.20;63.00;;;;;;20853705;28;20307;-72
2020/12/19 04:57:19;;;;;;;1.73;0.90;;;11.20;63.00;;;;;;20877011;28;20065;-72
2020/12/19 05:07:20;;;;;;;1.35;0.80;;;11.10;62.90;;;;;;20862158;28;20061;-72
2020/12/19 05:17:21;;;;;;;1.80;1.10;;;11.20;63.10;;;;;;20917441;28;20043;-71
2020/12/19 05:27:22;;;;;;;2.53;1.05;;;11.30;63.10;;;;;;20880745;28;20033;-72
2020/12/19 05:37:22;;;;;;;2.03;1.15;;;11.50;63.00;;;;;;20891728;28;20398;-71
2020/12/19 05:47:23;;;;;;;0.65;0.57;;;11.70;62.20;;;;;;20911354;28;20182;-73
2020/12/19 05:57:25;;;;;;;2.13;1.08;;;12.00;61.60;;;;;;20891961;28;20067;-72
2020/12/19 06:07:29;;;;;;;2.15;1.30;;;12.10;60.90;;;;;;20891487;28;20073;-73
2020/12/19 06:17:50;;;;;;;0.75;0.57;;;12.30;60.30;;;;;;20869803;28;20087;-72
2020/12/19 06:27:50;;;;;;;1.67;0.57;;;12.30;59.90;;;;;;20898114;28;20032;-72
2020/12/19 06:37:51;;;;;;;1.00;0.70;;;12.30;59.50;;;;;;20865789;28;20037;-72
2020/12/19 06:47:53;;;;;;;1.58;0.80;;;12.20;58.90;;;;;;20845382;28;20141;-73
2020/12/19 06:57:56;;;;;;;1.75;0.60;;;12.10;59.10;;;;;;20861495;28;20033;-73
2020/12/19 07:08:20;;;;;;;0.80;0.65;;;11.90;59.50;;;;;;20867398;28;20476;-72
2020/12/19 07:18:33;;;;;;;0.38;0.38;;;11.80;59.70;;;;;;20891935;28;20037;-74
2020/12/19 07:28:34;;;;;;;0.80;0.45;;;12.00;60.80;;;;;;20853084;28;20490;-72
2020/12/19 07:38:35;;;;;;;1.23;0.83;;;12.00;60.60;;;;;;20884124;28;20072;-73
2020/12/19 07:48:35;;;;;;;0.57;0.40;;;11.80;60.60;;;;;;20864299;28;20332;-74
2020/12/19 07:58:37;;;;;;;1.38;0.93;;;11.70;60.70;;;;;;20870675;28;20091;-75
2020/12/19 08:08:38;;;;;;;1.30;0.80;;;11.60;61.00;;;;;;20879223;28;20107;-71
2020/12/19 08:18:38;;;;;;;1.45;0.80;;;11.60;61.30;;;;;;20882525;28;20028;-75
2020/12/19 08:28:39;;;;;;;4.03;0.85;;;11.50;61.50;;;;;;20874292;28;20467;-75
2020/12/19 08:38:40;;;;;;;0.63;0.45;;;11.50;62.20;;;;;;20857797;28;20063;-71
2020/12/19 08:48:43;;;;;;;0.93;0.60;;;11.50;61.70;;;;;;20891021;28;20395;-77
2020/12/19 08:58:57;;;;;;;0.68;0.50;;;11.50;61.80;;;;;;20915115;28;20040;-74
2020/12/19 09:08:58;;;;;;;1.90;0.80;;;11.50;61.90;;;;;;21311986;22;20037;-74
2020/12/19 09:18:59;;;;;;;1.33;1.00;;;11.70;62.30;;;;;;20739450;28;20117;-74
2020/12/19 09:29:01;;;;;;;2.00;0.95;;;11.70;61.50;;;;;;20746155;28;20121;-80
2020/12/19 09:39:03;;;;;;;3.38;1.45;;;11.60;61.30;;;;;;20796127;28;20038;-86
2020/12/19 09:49:04;;;;;;;3.75;1.75;;;11.70;61.10;;;;;;20749740;28;20076;-83
2020/12/19 09:59:07;;;;;;;2.65;1.00;;;11.70;61.20;;;;;;20765661;28;20514;-76
2020/12/19 10:09:10;;;;;;;4.53;1.60;;;11.80;61.20;;;;;;20735486;28;20462;-75
2020/12/19 10:19:12;;;;;;;2.72;1.20;;;11.60;61.30;;;;;;20750068;28;20034;-74
2020/12/19 10:29:13;;;;;;;2.88;1.30;;;11.80;61.50;;;;;;20755009;28;20038;-74
2020/12/19 10:39:15;;;;;;;3.25;1.67;;;11.80;61.50;;;;;;20771270;28;20025;-76
2020/12/19 10:49:16;;;;;;;3.50;1.17;;;11.80;61.40;;;;;;20772481;28;20483;-72
2020/12/19 10:59:17;;;;;;;1.93;1.20;;;11.80;61.70;;;;;;20761208;28;20136;-73
2020/12/19 11:09:17;;;;;;;2.80;1.17;;;11.80;62.00;;;;;;20763957;28;20363;-73
2020/12/19 11:19:18;;;;;;;2.10;1.10;;;11.80;62.20;;;;;;20761514;28;20033;-76
2020/12/19 11:29:19;;;;;;;2.72;0.95;;;11.80;62.50;;;;;;20737782;28;20336;-73
2020/12/19 11:39:20;;;;;;;1.35;0.73;;;11.70;62.40;;;;;;20756415;28;20104;-72
2020/12/19 11:49:20;;;;;;;1.48;1.02;;;11.80;63.10;;;;;;20767766;28;20471;-74
2020/12/19 11:59:22;;;;;;;1.73;1.23;;;11.70;62.80;;;;;;20728264;28;20036;-74
2020/12/19 12:09:23;;;;;;;1.85;1.08;;;11.60;63.00;;;;;;20799645;28;20045;-73
2020/12/19 12:19:24;;;;;;;0.60;0.32;;;11.60;63.20;;;;;;20774972;28;20050;-70
2020/12/19 12:29:25;;;;;;;0.90;0.30;;;11.50;63.30;;;;;;20742661;28;20044;-78
2020/12/19 12:39:28;;;;;;;0.90;0.70;;;11.50;63.50;;;;;;20766860;28;20373;-79
2020/12/19 12:49:28;;;;;;;1.55;0.90;;;11.50;63.50;;;;;;20734832;28;20038;-71
2020/12/19 12:59:29;;;;;;;0.98;0.93;;;11.40;63.70;;;;;;20740954;28;20230;-78
2020/12/19 13:09:33;;;;;;;3.38;1.00;;;11.50;63.80;;;;;;20781813;28;20124;-77
2020/12/19 13:19:35;;;;;;;0.98;0.35;;;11.60;64.40;;;;;;20736958;28;20116;-79
2020/12/19 13:29:35;;;;;;;1.35;0.65;;;11.80;65.40;;;;;;20786160;28;20049;-73
2020/12/19 13:39:36;;;;;;;0.90;0.50;;;11.90;65.60;;;;;;20777453;28;20472;-75
2020/12/19 13:49:36;;;;;;;0.63;0.32;;;11.70;65.50;;;;;;20747842;28;20084;-71
2020/12/19 13:59:39;;;;;;;0.73;0.47;;;11.60;65.40;;;;;;20777871;28;20045;-75
2020/12/19 14:09:40;;;;;;;1.10;0.47;;;11.70;65.90;;;;;;20759225;28;20570;-75
2020/12/19 14:19:40;;;;;;;0.77;0.40;;;11.60;65.30;;;;;;20752128;28;20042;-74
2020/12/19 14:29:42;;;;;;;0.98;0.55;;;11.60;65.20;;;;;;20708239;28;20038;-75
2020/12/19 14:39:43;;;;;;;1.08;0.57;;;11.60;65.20;;;;;;20742880;28;20055;-76
2020/12/19 14:49:45;;;;;;;0.57;0.30;;;11.60;65.10;;;;;;20757219;28;20038;-75
2020/12/19 14:59:45;;;;;;;0.40;0.35;;;11.50;65.10;;;;;;20730674;28;20402;-76
2020/12/19 15:09:46;;;;;;;0.38;0.25;;;11.50;65.20;;;;;;20729483;28;20124;-77
2020/12/19 15:19:46;;;;;;;1.00;0.40;;;11.50;65.20;;;;;;20737539;28;20033;-76
2020/12/19 15:29:49;;;;;;;1.60;0.57;;;11.50;65.30;;;;;;20706274;28;20066;-75
2020/12/19 15:39:53;;;;;;;0.73;0.40;;;11.50;65.40;;;;;;20737191;28;20698;-76
2020/12/19 15:49:53;;;;;;;0.45;0.28;;;11.50;65.40;;;;;;20726964;28;20370;-75
2020/12/19 15:59:55;;;;;;;2.28;0.70;;;11.50;65.50;;;;;;20752092;28;20361;-77
2020/12/19 16:09:57;;;;;;;0.50;0.30;;;11.50;65.50;;;;;;20753410;28;20041;-75
2020/12/19 16:19:58;;;;;;;1.05;0.40;;;11.40;65.40;;;;;;20765820;28;20280;-76
2020/12/19 16:29:59;;;;;;;0.98;0.50;;;11.40;65.50;;;;;;20741014;28;20053;-75
2020/12/19 16:39:59;;;;;;;0.68;0.30;;;11.40;66.20;;;;;;20749594;28;20080;-75
2020/12/19 16:50:00;;;;;;;1.40;0.35;;;11.40;65.50;;;;;;20805947;28;20046;-78
2020/12/19 17:00:03;;;;;;;0.30;0.25;;;11.40;65.50;;;;;;20781902;28;20037;-78
2020/12/19 17:10:06;;;;;;;0.50;0.35;;;11.50;65.50;;;;;;20776305;28;20038;-76
2020/12/19 17:20:07;;;;;;;0.98;0.47;;;11.40;65.50;;;;;;20753681;28;20034;-78
2020/12/19 17:30:08;;;;;;;1.58;0.70;;;11.40;65.60;;;;;;20728520;28;20064;-75
2020/12/19 17:40:08;;;;;;;3.25;0.60;;;11.30;65.60;;;;;;20755908;28;20095;-74
2020/12/19 17:50:09;;;;;;;0.52;0.43;;;11.30;65.70;;;;;;20733205;28;20037;-74
2020/12/19 18:00:10;;;;;;;0.88;0.60;;;11.30;65.70;;;;;;20768219;28;20042;-73
2020/12/19 18:10:11;;;;;;;1.40;0.47;;;11.20;65.70;;;;;;20747990;28;20180;-73
2020/12/19 18:20:14;;;;;;;0.20;0.20;;;11.30;65.70;;;;;;20766160;28;20038;-72
2020/12/19 18:30:18;;;;;;;1.40;0.52;;;11.30;65.80;;;;;;20776664;28;20045;-73
2020/12/19 18:40:19;;;;;;;0.43;0.38;;;11.30;65.80;;;;;;20756594;28;20038;-72
2020/12/19 18:50:26;;;;;;;0.55;0.32;;;11.30;65.70;;;;;;20765392;28;20373;-72
2020/12/19 19:00:27;;;;;;;0.20;0.20;;;11.30;65.80;;;;;;20761455;28;20042;-73
2020/12/19 19:10:29;;;;;;;0.47;0.35;;;11.30;65.80;;;;;;20761284;28;20044;-73
2020/12/19 19:20:31;;;;;;;0.60;0.28;;;11.30;65.80;;;;;;20741698;28;20033;-73
2020/12/19 19:30:32;;;;;;;1.05;0.47;;;11.20;65.80;;;;;;20757786;28;20517;-72
2020/12/19 19:40:32;;;;;;;1.80;1.00;;;11.30;65.80;;;;;;20767267;28;20170;-74
2020/12/19 19:50:33;;;;;;;0.30;0.30;;;11.20;65.80;;;;;;20771568;28;20026;-71
2020/12/19 20:00:35;;;;;;;0.60;0.45;;;11.20;65.70;;;;;;20743918;28;20117;-71
2020/12/19 20:10:39;;;;;;;0.80;0.45;;;11.20;65.70;;;;;;20760156;28;20045;-72
2020/12/19 20:20:41;;;;;;;0.50;0.43;;;11.20;65.70;;;;;;20764461;28;20099;-71
2020/12/19 20:30:42;;;;;;;0.50;0.47;;;11.20;65.60;;;;;;20770473;28;20064;-71
2020/12/19 20:40:45;;;;;;;0.40;0.40;;;11.20;65.60;;;;;;20754878;28;20042;-71
2020/12/19 20:50:45;;;;;;;3.15;0.95;;;11.20;65.60;;;;;;20766069;28;20802;-72
2020/12/19 21:00:46;;;;;;;0.98;0.77;;;11.20;65.50;;;;;;20749228;28;20034;-72
2020/12/19 21:10:51;;;;;;;0.57;0.35;;;11.20;65.40;;;;;;20761465;28;20080;-74
2020/12/19 21:20:52;;;;;;;0.95;0.40;;;11.10;65.40;;;;;;20751741;28;20030;-72
2020/12/19 21:30:53;;;;;;;1.48;0.68;;;11.20;65.50;;;;;;20740918;28;20038;-72
2020/12/19 21:40:53;;;;;;;0.75;0.55;;;11.10;65.60;;;;;;20755762;28;20034;-72
2020/12/19 21:50:54;;;;;;;1.30;0.55;;;11.20;65.40;;;;;;20754529;28;20042;-71
2020/12/19 22:00:54;;;;;;;1.27;0.60;;;11.20;65.40;;;;;;20756284;28;20096;-71
2020/12/19 22:10:55;;;;;;;0.52;0.40;;;11.10;65.40;;;;;;20756078;28;20042;-72
2020/12/19 22:20:55;;;;;;;1.70;0.77;;;11.10;65.40;;;;;;20758572;28;20033;-71
2020/12/19 22:30:56;;;;;;;2.60;0.80;;;11.10;65.40;;;;;;20773609;28;20088;-71
2020/12/19 22:40:59;;;;;;;0.88;0.57;;;11.10;65.40;;;;;;20770451;28;20026;-71
2020/12/19 22:51:00;;;;;;;3.53;1.38;;;11.10;65.40;;;;;;20736294;28;20103;-71
2020/12/19 23:01:02;;;;;;;1.17;0.85;;;11.10;65.40;;;;;;20750529;28;20049;-71
2020/12/19 23:11:04;;;;;;;6.07;1.48;;;11.10;65.30;;;;;;20744551;28;20042;-72
2020/12/19 23:21:04;;;;;;;1.27;0.55;;;11.10;65.40;;;;;;20747310;28;20495;-71
2020/12/19 23:31:05;;;;;;;2.03;0.55;;;11.10;65.40;;;;;;20747828;28;20034;-72
2020/12/19 23:41:05;;;;;;;1.02;0.45;;;11.10;65.40;;;;;;20755758;28;20048;-72
2020/12/19 23:51:06;;;;;;;1.55;0.80;;;11.10;65.40;;;;;;20735249;28;20823;-72
